aviador You're here:

LFSD Decoded Metar

DIJON in FRANCE
Report Time2017-08-20 19:00:00
UTC Time2017-08-20 19:12:06
Flight Rules vfr VFR
Wind350° at 05 kt
W.Decomp.*RWY 35: 5.0 kt HW 0.1 kt LCW
RWY 01: 4.7 kt HW 1.8 kt LCW
W.Rank350° ranks 5
Current wind is below 350° avg. (6.0)
Visibility9999 m
Phenomena:N/A
Clouds:N/A
Expected CloudBase > 4,800 ft AGL from Temp-Dew spread
CeilingNone
Temp18°C (ISA +4)
Dew Point06°C (46% RH)
AAT15.3°C
QNH1025 hPa
Density Alt997 ft
Elevation745 ft
Report Wrong Elevation
Raw Report
LFSD 201900Z AUTO 35005KT 340V090 CAVOK 18/06 Q1025=

Extra information for LFSD:More info

Metar Taf Metar & Taf Last 4 Metars F.Rules Stats Wind Profile Meteogram Temp Stats Airport Information Weather charts Add Link Nearby VenuesMetar ALERT Operation Metar Decoded Social comments